Time;durP1;ratioP1;P1;durP2;ratioP2;P2;SDS_P1;SDS_P2;PMS_P1;PMS_P2;Temp;Humidity;BMP_temperature;BMP_pressure;BME280_temperature;BME280_humidity;BME280_pressure;Samples;Min_cycle;Max_cycle;Signal;HPM_P1;HPM_P2
2024/02/29 00:02:11;;;;;;;23.77;12.27;;;12.70;99.90;;;;;;5013721;28;20018;-72
2024/02/29 00:04:36;;;;;;;24.27;10.55;;;12.60;99.90;;;;;;5012216;28;20033;-73
2024/02/29 00:07:02;;;;;;;28.67;10.82;;;12.60;99.90;;;;;;5013519;28;20041;-73
2024/02/29 00:09:29;;;;;;;37.92;11.13;;;12.60;99.90;;;;;;5013560;28;20104;-73
2024/02/29 00:11:55;;;;;;;25.27;9.45;;;12.60;99.90;;;;;;5013880;28;20469;-73
2024/02/29 00:14:21;;;;;;;27.45;9.63;;;12.70;99.90;;;;;;5013115;28;20032;-73
2024/02/29 00:16:47;;;;;;;24.38;9.25;;;12.70;99.90;;;;;;5013642;28;20049;-72
2024/02/29 00:19:13;;;;;;;23.25;8.35;;;12.70;99.90;;;;;;5013612;28;20037;-72
2024/02/29 00:21:39;;;;;;;30.05;8.68;;;12.70;99.90;;;;;;5013455;28;20032;-72
2024/02/29 00:24:05;;;;;;;23.20;7.68;;;12.70;99.90;;;;;;5014052;28;20025;-73
2024/02/29 00:26:30;;;;;;;23.15;8.23;;;12.70;99.90;;;;;;5013277;28;20026;-73
2024/02/29 00:28:56;;;;;;;25.33;8.35;;;12.70;99.90;;;;;;5013696;28;20104;-72
2024/02/29 00:31:24;;;;;;;22.77;7.35;;;12.70;99.90;;;;;;5013247;28;20032;-71
2024/02/29 00:33:50;;;;;;;26.95;7.07;;;12.70;99.90;;;;;;5012847;28;20034;-72
2024/02/29 00:36:16;;;;;;;28.80;7.25;;;12.70;99.90;;;;;;5013027;28;20092;-73
2024/02/29 00:38:42;;;;;;;28.20;7.20;;;12.70;99.90;;;;;;5012860;28;20026;-72
2024/02/29 00:41:08;;;;;;;25.55;9.13;;;12.80;99.90;;;;;;5013097;28;20048;-73
2024/02/29 00:43:34;;;;;;;19.60;8.00;;;12.80;99.90;;;;;;5013374;28;20026;-73
2024/02/29 00:46:00;;;;;;;23.77;6.93;;;12.80;99.90;;;;;;5013001;28;20057;-73
2024/02/29 00:48:26;;;;;;;30.65;6.50;;;12.70;99.90;;;;;;5012856;28;20124;-72
2024/02/29 00:50:52;;;;;;;23.05;7.13;;;12.70;99.90;;;;;;5012685;28;20034;-72
2024/02/29 00:53:18;;;;;;;22.30;7.70;;;12.80;99.90;;;;;;5013084;28;20038;-72
2024/02/29 00:55:44;;;;;;;23.23;7.47;;;12.80;99.90;;;;;;5012650;28;20041;-72
2024/02/29 00:58:10;;;;;;;23.00;7.45;;;12.80;99.90;;;;;;5013136;28;20041;-73
2024/02/29 01:00:35;;;;;;;27.58;7.90;;;12.80;99.90;;;;;;5012967;28;20025;-73
2024/02/29 01:03:02;;;;;;;23.52;6.75;;;12.80;99.90;;;;;;5012904;28;20034;-73
2024/02/29 01:05:28;;;;;;;24.30;7.47;;;12.80;99.90;;;;;;5012782;28;20037;-72
2024/02/29 01:07:54;;;;;;;18.08;6.55;;;12.80;99.90;;;;;;5012777;28;20481;-72
2024/02/29 01:10:20;;;;;;;23.30;6.47;;;12.80;99.90;;;;;;5012871;28;20057;-72
2024/02/29 01:12:46;;;;;;;23.33;6.32;;;12.80;99.90;;;;;;5012623;28;20034;-73
2024/02/29 01:15:15;;;;;;;21.27;5.68;;;12.80;99.90;;;;;;5012474;28;20034;-72
2024/02/29 01:17:42;;;;;;;22.35;6.13;;;12.80;99.90;;;;;;5012530;28;20458;-71
2024/02/29 01:20:09;;;;;;;21.75;6.40;;;12.80;99.90;;;;;;5012592;28;20022;-73
2024/02/29 01:22:38;;;;;;;19.65;6.30;;;12.80;99.90;;;;;;5012562;28;20033;-73
2024/02/29 01:25:04;;;;;;;21.77;6.38;;;12.80;99.90;;;;;;5014468;28;20084;-73
2024/02/29 01:27:30;;;;;;;24.25;6.25;;;12.80;99.90;;;;;;5016588;28;20106;-73
2024/02/29 01:29:56;;;;;;;23.48;6.97;;;12.80;99.90;;;;;;5016693;28;20057;-72
2024/02/29 01:32:21;;;;;;;26.30;5.53;;;12.80;99.90;;;;;;5016543;28;20029;-73
2024/02/29 01:34:47;;;;;;;25.88;7.75;;;12.80;99.90;;;;;;5016415;28;20452;-72
2024/02/29 01:37:14;;;;;;;22.67;5.85;;;12.80;99.90;;;;;;5016469;28;20026;-72
2024/02/29 01:39:41;;;;;;;25.95;6.15;;;12.80;99.90;;;;;;5016341;28;20113;-72
2024/02/29 01:42:07;;;;;;;20.60;6.22;;;12.80;99.90;;;;;;5016103;28;20018;-73
2024/02/29 01:44:34;;;;;;;21.42;5.95;;;12.80;99.90;;;;;;5016140;28;20088;-73
2024/02/29 01:47:01;;;;;;;29.80;6.72;;;12.70;99.90;;;;;;5016160;28;20478;-72
2024/02/29 01:49:27;;;;;;;18.88;5.70;;;12.80;99.90;;;;;;5016593;28;20052;-73
2024/02/29 01:51:54;;;;;;;18.27;5.25;;;12.70;99.90;;;;;;5016368;28;20033;-72
2024/02/29 01:54:19;;;;;;;21.75;5.78;;;12.70;99.90;;;;;;5016139;28;20018;-72
2024/02/29 01:56:46;;;;;;;23.73;5.57;;;12.80;99.90;;;;;;5016258;28;20164;-72
2024/02/29 01:59:13;;;;;;;15.63;5.00;;;12.80;99.90;;;;;;5013436;28;20837;-72
2024/02/29 02:01:39;;;;;;;14.40;5.15;;;12.80;99.90;;;;;;5013350;28;20036;-71
2024/02/29 02:04:05;;;;;;;19.80;6.55;;;12.80;99.90;;;;;;5013907;28;20021;-71
2024/02/29 02:06:31;;;;;;;23.15;5.43;;;12.80;99.90;;;;;;5015761;28;20042;-71
2024/02/29 02:08:56;;;;;;;25.85;5.57;;;12.80;99.90;;;;;;5015698;28;20116;-73
2024/02/29 02:11:22;;;;;;;29.33;6.15;;;12.90;99.90;;;;;;5015926;28;20054;-72
2024/02/29 02:13:48;;;;;;;16.65;5.10;;;12.80;99.90;;;;;;5015833;28;20025;-73
2024/02/29 02:16:14;;;;;;;26.90;5.82;;;12.90;99.90;;;;;;5015806;28;20026;-72
2024/02/29 02:18:40;;;;;;;19.48;4.90;;;12.90;99.90;;;;;;5015272;28;20028;-71
2024/02/29 02:21:06;;;;;;;21.42;5.55;;;12.90;99.90;;;;;;5015494;28;20100;-71
2024/02/29 02:23:32;;;;;;;25.25;4.90;;;12.90;99.90;;;;;;5015580;28;20495;-72
2024/02/29 02:25:59;;;;;;;18.58;4.70;;;12.80;99.90;;;;;;5015188;28;20034;-72
2024/02/29 02:28:25;;;;;;;19.90;4.70;;;12.90;99.90;;;;;;5015235;28;20096;-71
2024/02/29 02:30:52;;;;;;;30.70;5.93;;;12.90;99.90;;;;;;5015587;28;20048;-72
2024/02/29 02:33:18;;;;;;;20.83;4.93;;;12.90;99.90;;;;;;5015220;28;20025;-73
2024/02/29 02:35:44;;;;;;;29.33;6.82;;;12.90;99.90;;;;;;5014658;28;20022;-72
2024/02/29 02:38:10;;;;;;;22.98;5.38;;;12.90;99.90;;;;;;5015022;28;20044;-73
2024/02/29 02:40:36;;;;;;;24.15;4.65;;;12.90;99.90;;;;;;5014986;28;20026;-72
2024/02/29 02:43:02;;;;;;;27.80;4.78;;;12.90;99.90;;;;;;5015129;28;20156;-71
2024/02/29 02:45:28;;;;;;;24.80;5.20;;;12.90;99.90;;;;;;5015387;28;20038;-72
2024/02/29 02:47:54;;;;;;;27.08;5.18;;;12.90;99.90;;;;;;5014829;28;20103;-73
2024/02/29 02:50:20;;;;;;;20.65;5.63;;;12.90;99.90;;;;;;5015231;28;20093;-73
2024/02/29 02:52:46;;;;;;;16.85;4.80;;;12.90;99.90;;;;;;5015036;28;20188;-72
2024/02/29 02:55:11;;;;;;;30.00;5.60;;;13.00;99.90;;;;;;5014486;28;20037;-72
2024/02/29 02:57:37;;;;;;;17.55;4.85;;;13.00;99.90;;;;;;5014690;28;20030;-72
2024/02/29 03:00:04;;;;;;;19.25;5.38;;;12.90;99.90;;;;;;5015170;28;20113;-71
2024/02/29 03:02:30;;;;;;;21.80;4.65;;;13.00;99.90;;;;;;5015308;28;20038;-72
2024/02/29 03:04:56;;;;;;;23.35;5.28;;;12.90;99.90;;;;;;5015192;28;20084;-72
2024/02/29 03:07:22;;;;;;;25.17;4.70;;;12.90;99.90;;;;;;5014263;28;20053;-71
2024/02/29 03:09:48;;;;;;;24.95;5.60;;;12.90;99.90;;;;;;5014698;28;20027;-73
2024/02/29 03:12:15;;;;;;;22.08;4.95;;;12.90;99.90;;;;;;5014857;28;20030;-72
2024/02/29 03:14:41;;;;;;;17.88;4.80;;;12.80;99.90;;;;;;5014831;28;20040;-73
2024/02/29 03:17:06;;;;;;;24.58;4.30;;;12.80;99.90;;;;;;5014787;28;20466;-72
2024/02/29 03:19:32;;;;;;;20.40;4.57;;;12.80;99.90;;;;;;5014795;28;20092;-71
2024/02/29 03:21:58;;;;;;;17.08;4.85;;;12.80;99.90;;;;;;5014554;28;20026;-72
2024/02/29 03:24:24;;;;;;;14.15;4.47;;;12.80;99.90;;;;;;5014310;28;20026;-72
2024/02/29 03:26:49;;;;;;;16.00;3.95;;;12.70;99.90;;;;;;5014174;28;20038;-72
2024/02/29 03:29:15;;;;;;;16.85;4.47;;;12.80;99.90;;;;;;5014171;28;20048;-71
2024/02/29 03:31:45;;;;;;;21.70;4.72;;;12.70;99.90;;;;;;5014400;28;20022;-72
2024/02/29 03:34:11;;;;;;;19.17;4.72;;;12.70;99.90;;;;;;5014393;28;20367;-72
2024/02/29 03:36:37;;;;;;;28.52;4.38;;;12.70;99.90;;;;;;5014247;28;20066;-72
2024/02/29 03:39:05;;;;;;;19.60;4.30;;;12.70;99.90;;;;;;5014065;28;20029;-72
2024/02/29 03:41:31;;;;;;;18.27;4.47;;;12.70;99.90;;;;;;5013968;28;20045;-72
2024/02/29 03:43:58;;;;;;;26.10;5.07;;;12.70;99.90;;;;;;5013918;28;20022;-72
2024/02/29 03:46:24;;;;;;;17.80;4.57;;;12.70;99.90;;;;;;5013836;28;20041;-73
2024/02/29 03:48:50;;;;;;;23.50;4.68;;;12.70;99.90;;;;;;5013609;28;20033;-72
2024/02/29 03:51:18;;;;;;;23.25;4.95;;;12.60;99.90;;;;;;5013986;28;20036;-71
2024/02/29 03:53:44;;;;;;;23.02;4.97;;;12.60;99.90;;;;;;5013794;28;20026;-72
2024/02/29 03:56:10;;;;;;;22.13;4.45;;;12.60;99.90;;;;;;5013915;28;20117;-72
2024/02/29 03:58:36;;;;;;;16.98;4.80;;;12.60;99.90;;;;;;5013634;28;20106;-72
2024/02/29 04:01:02;;;;;;;20.33;4.07;;;12.60;99.90;;;;;;5013818;28;20084;-72
2024/02/29 04:03:28;;;;;;;30.55;4.68;;;12.60;99.90;;;;;;5013970;28;20449;-72
2024/02/29 04:05:53;;;;;;;17.65;3.88;;;12.50;99.90;;;;;;5013690;28;20046;-72
2024/02/29 04:08:19;;;;;;;18.67;4.68;;;12.50;99.90;;;;;;5013673;28;20049;-73
2024/02/29 04:10:48;;;;;;;19.27;4.40;;;12.50;99.90;;;;;;5013668;28;20029;-72
2024/02/29 04:13:14;;;;;;;20.88;5.95;;;12.50;99.90;;;;;;5014069;28;20030;-73
2024/02/29 04:15:40;;;;;;;22.90;4.93;;;12.50;99.90;;;;;;5013498;28;20066;-71
2024/02/29 04:18:06;;;;;;;19.90;5.47;;;12.50;99.90;;;;;;5013723;28;20018;-73
2024/02/29 04:20:32;;;;;;;16.98;6.03;;;12.50;99.90;;;;;;5012406;28;20032;-73
2024/02/29 04:22:58;;;;;;;16.30;4.75;;;12.50;99.90;;;;;;5013796;28;20367;-72
2024/02/29 04:25:24;;;;;;;26.20;5.28;;;12.50;99.90;;;;;;5013629;28;20030;-72
2024/02/29 04:27:50;;;;;;;23.15;5.13;;;12.50;99.90;;;;;;5013373;28;20034;-73
2024/02/29 04:30:17;;;;;;;24.20;5.13;;;12.50;99.90;;;;;;5013674;28;20029;-73
2024/02/29 04:32:43;;;;;;;22.25;4.93;;;12.50;99.90;;;;;;5013309;28;20168;-72
2024/02/29 04:35:09;;;;;;;22.23;4.55;;;12.50;99.90;;;;;;5011937;28;20488;-72
2024/02/29 04:37:35;;;;;;;25.02;4.35;;;12.60;99.90;;;;;;5013109;28;20115;-72
2024/02/29 04:40:03;;;;;;;27.95;4.80;;;12.60;99.90;;;;;;5011841;28;20434;-73
2024/02/29 04:42:29;;;;;;;24.90;4.78;;;12.60;99.90;;;;;;5012347;28;20128;-72
2024/02/29 04:44:55;;;;;;;22.67;4.00;;;12.60;99.90;;;;;;5013236;28;20033;-73
2024/02/29 04:47:22;;;;;;;23.58;5.10;;;12.60;99.90;;;;;;5012806;28;20060;-71
2024/02/29 04:49:48;;;;;;;28.95;4.38;;;12.60;99.90;;;;;;5012749;28;20040;-73
2024/02/29 04:52:13;;;;;;;26.60;4.68;;;12.60;99.90;;;;;;5013095;28;20474;-72
2024/02/29 04:54:39;;;;;;;22.13;4.05;;;12.60;99.90;;;;;;5013168;28;20030;-73
2024/02/29 04:57:05;;;;;;;18.80;3.75;;;12.70;99.90;;;;;;5012871;28;20026;-73
2024/02/29 04:59:31;;;;;;;20.85;4.07;;;12.70;99.90;;;;;;5012669;28;20126;-72
2024/02/29 05:01:57;;;;;;;19.73;4.75;;;12.70;99.90;;;;;;5013209;28;20375;-72
2024/02/29 05:04:23;;;;;;;16.60;3.65;;;12.70;99.90;;;;;;5012995;28;20033;-73
2024/02/29 05:06:49;;;;;;;16.48;4.10;;;12.70;99.90;;;;;;5012469;28;20037;-73
2024/02/29 05:09:15;;;;;;;25.38;4.20;;;12.70;99.90;;;;;;5012496;28;20033;-73
2024/02/29 05:11:41;;;;;;;19.02;4.10;;;12.60;99.90;;;;;;5012898;28;20478;-70
2024/02/29 05:14:07;;;;;;;24.70;4.15;;;12.60;99.90;;;;;;5012859;28;20077;-73
2024/02/29 05:16:33;;;;;;;19.02;4.70;;;12.60;99.90;;;;;;5012593;28;20458;-72
2024/02/29 05:18:59;;;;;;;20.92;6.07;;;12.70;99.90;;;;;;5012683;28;20098;-72
2024/02/29 05:21:25;;;;;;;25.77;5.20;;;12.60;99.90;;;;;;5012715;28;20121;-73
2024/02/29 05:23:51;;;;;;;19.05;4.82;;;12.60;99.90;;;;;;5012826;28;20022;-73
2024/02/29 05:26:18;;;;;;;20.90;5.13;;;12.60;99.90;;;;;;5012682;28;20386;-73
2024/02/29 05:28:45;;;;;;;18.63;4.88;;;12.60;99.90;;;;;;5012685;28;20018;-73
2024/02/29 05:31:10;;;;;;;26.55;5.53;;;12.60;99.90;;;;;;5012858;28;20022;-72
2024/02/29 05:33:37;;;;;;;19.80;5.20;;;12.60;99.90;;;;;;5012874;28;20097;-73
2024/02/29 05:36:03;;;;;;;30.80;6.32;;;12.70;99.90;;;;;;5012762;28;20034;-73
2024/02/29 05:38:29;;;;;;;20.10;4.88;;;12.60;99.90;;;;;;5012071;28;20034;-73
2024/02/29 05:40:57;;;;;;;18.40;4.95;;;12.70;99.90;;;;;;5012073;28;20045;-73
2024/02/29 05:43:25;;;;;;;16.27;5.15;;;12.80;99.90;;;;;;5012391;28;20053;-73
2024/02/29 05:45:50;;;;;;;21.77;5.40;;;12.90;99.90;;;;;;5012181;28;20037;-73
2024/02/29 05:48:16;;;;;;;21.10;5.38;;;12.90;99.90;;;;;;5012373;28;20054;-73
2024/02/29 05:50:42;;;;;;;12.55;4.78;;;12.90;99.90;;;;;;5012166;28;20030;-73
2024/02/29 05:53:08;;;;;;;23.02;5.07;;;13.00;99.90;;;;;;5012192;28;20100;-73
2024/02/29 05:55:33;;;;;;;20.23;5.35;;;13.00;99.90;;;;;;5012227;28;20022;-73
2024/02/29 05:57:59;;;;;;;22.77;5.85;;;13.00;99.90;;;;;;5012173;28;20036;-73
2024/02/29 06:00:25;;;;;;;21.98;6.25;;;13.10;99.90;;;;;;5010827;28;20030;-73
2024/02/29 06:02:51;;;;;;;56.10;6.30;;;13.10;99.90;;;;;;5011959;28;20066;-73
2024/02/29 06:05:17;;;;;;;20.73;5.45;;;13.10;99.90;;;;;;5011340;28;20029;-73
2024/02/29 06:07:43;;;;;;;29.60;6.50;;;13.10;99.90;;;;;;5010612;28;20030;-73
2024/02/29 06:10:10;;;;;;;14.35;5.45;;;13.10;99.90;;;;;;5011968;28;20462;-72
2024/02/29 06:12:39;;;;;;;20.55;5.35;;;13.10;99.90;;;;;;5014355;28;20532;-73
2024/02/29 06:15:06;;;;;;;21.58;6.03;;;13.10;99.90;;;;;;5017081;28;20536;-71
2024/02/29 06:17:32;;;;;;;20.88;5.40;;;13.10;99.90;;;;;;5016047;28;20505;-72
2024/02/29 06:19:57;;;;;;;20.40;5.95;;;13.10;99.90;;;;;;5015752;28;20022;-73
2024/02/29 06:22:23;;;;;;;26.10;5.43;;;13.10;99.90;;;;;;5015532;28;20390;-72
2024/02/29 06:24:50;;;;;;;19.45;6.05;;;13.10;99.90;;;;;;5015679;28;20033;-74
2024/02/29 06:27:21;;;;;;;20.35;6.05;;;13.10;99.90;;;;;;5015636;28;20022;-73
2024/02/29 06:29:47;;;;;;;19.70;5.20;;;13.10;99.90;;;;;;5015765;28;20462;-69
2024/02/29 06:32:13;;;;;;;24.58;6.43;;;13.10;99.90;;;;;;5015324;28;20037;-69
2024/02/29 06:34:40;;;;;;;31.50;7.03;;;13.10;99.90;;;;;;5015629;28;20033;-69
2024/02/29 06:37:09;;;;;;;21.27;6.25;;;13.10;99.90;;;;;;5014535;28;20086;-68
2024/02/29 06:39:35;;;;;;;19.67;5.95;;;13.10;99.90;;;;;;5013685;28;20108;-68
2024/02/29 06:42:00;;;;;;;17.92;6.05;;;13.10;99.90;;;;;;5014057;28;20105;-70
2024/02/29 06:44:26;;;;;;;23.65;5.97;;;13.10;99.90;;;;;;5014115;28;20077;-72
2024/02/29 06:46:52;;;;;;;18.42;6.40;;;13.10;99.90;;;;;;5013538;28;20123;-70
2024/02/29 06:49:22;;;;;;;20.23;6.85;;;13.10;99.90;;;;;;5014572;28;20112;-72
2024/02/29 06:51:49;;;;;;;17.95;6.93;;;13.10;99.90;;;;;;5015323;28;20402;-73
2024/02/29 06:54:14;;;;;;;33.00;7.20;;;13.10;99.90;;;;;;5015369;28;20029;-72
2024/02/29 06:56:40;;;;;;;21.98;7.13;;;13.10;99.90;;;;;;5015255;28;20030;-72
2024/02/29 06:59:06;;;;;;;18.92;5.93;;;13.10;99.90;;;;;;5014122;28;20026;-74
2024/02/29 07:01:32;;;;;;;23.33;6.95;;;13.20;99.90;;;;;;5013058;28;20065;-73
2024/02/29 07:04:00;;;;;;;22.05;6.72;;;13.20;99.90;;;;;;5015149;28;20025;-72
2024/02/29 07:06:26;;;;;;;24.75;7.30;;;13.20;99.90;;;;;;5014051;28;20030;-73
2024/02/29 07:08:52;;;;;;;29.90;7.57;;;13.20;99.90;;;;;;5013983;28;20026;-73
2024/02/29 07:11:19;;;;;;;20.38;7.15;;;13.20;99.90;;;;;;5013731;28;20040;-72
2024/02/29 07:13:49;;;;;;;26.38;7.70;;;13.20;99.90;;;;;;5014154;28;20474;-73
2024/02/29 07:16:15;;;;;;;23.00;6.93;;;13.20;99.90;;;;;;5014671;28;20053;-72
2024/02/29 07:18:40;;;;;;;28.83;8.77;;;13.20;99.90;;;;;;5014463;28;20017;-72
2024/02/29 07:21:06;;;;;;;22.40;7.45;;;13.20;99.90;;;;;;5014532;28;20064;-69
2024/02/29 07:23:32;;;;;;;20.33;6.95;;;13.20;99.90;;;;;;5012969;28;20022;-71
2024/02/29 07:26:02;;;;;;;25.48;7.70;;;13.30;99.90;;;;;;5014517;28;20033;-72
2024/02/29 07:28:28;;;;;;;23.27;7.40;;;13.30;99.90;;;;;;5012983;28;20382;-73
2024/02/29 07:30:54;;;;;;;23.08;6.93;;;13.30;99.90;;;;;;5012892;28;20033;-71
2024/02/29 07:33:20;;;;;;;18.50;7.47;;;13.30;99.90;;;;;;5015906;28;20428;-73
2024/02/29 07:35:47;;;;;;;22.10;7.70;;;13.40;99.90;;;;;;5013967;28;20029;-73
2024/02/29 07:38:12;;;;;;;27.60;7.97;;;13.40;99.90;;;;;;5014297;28;20038;-72
2024/02/29 07:40:38;;;;;;;22.35;7.68;;;13.40;99.90;;;;;;5014306;28;20033;-73
2024/02/29 07:43:05;;;;;;;23.95;7.65;;;13.40;99.90;;;;;;5014159;28;20037;-73
2024/02/29 07:45:31;;;;;;;25.25;7.40;;;13.50;99.90;;;;;;5013867;28;20092;-73
2024/02/29 07:47:56;;;;;;;25.40;7.82;;;13.50;99.90;;;;;;5014258;28;20057;-73
2024/02/29 07:50:22;;;;;;;22.20;7.47;;;13.50;99.90;;;;;;5014163;28;20030;-73
2024/02/29 07:52:48;;;;;;;25.23;7.88;;;13.50;99.90;;;;;;5014291;28;20104;-73
2024/02/29 07:55:14;;;;;;;24.45;9.13;;;13.60;99.90;;;;;;5014339;28;20056;-73
2024/02/29 07:57:41;;;;;;;22.23;8.45;;;13.50;99.90;;;;;;5013875;28;20030;-73
2024/02/29 08:00:07;;;;;;;25.65;8.25;;;13.50;99.90;;;;;;5013962;28;20032;-73
2024/02/29 08:02:33;;;;;;;20.58;8.23;;;13.60;99.90;;;;;;5013451;28;20036;-74
2024/02/29 08:04:59;;;;;;;18.77;7.88;;;13.60;99.90;;;;;;5013062;28;20457;-73
2024/02/29 08:07:25;;;;;;;19.88;8.48;;;13.60;99.90;;;;;;5013533;28;20037;-72
2024/02/29 08:09:51;;;;;;;21.75;8.07;;;13.60;99.90;;;;;;5013482;28;20026;-73
2024/02/29 08:12:17;;;;;;;19.88;9.23;;;13.60;99.90;;;;;;5013545;28;20033;-73
2024/02/29 08:14:44;;;;;;;19.33;8.27;;;13.60;99.90;;;;;;5013849;28;20018;-73
2024/02/29 08:17:10;;;;;;;27.30;9.20;;;13.60;99.90;;;;;;5013514;28;20091;-73
2024/02/29 08:19:36;;;;;;;20.65;8.93;;;13.70;99.90;;;;;;5013565;28;20449;-73
2024/02/29 08:22:02;;;;;;;19.20;8.57;;;13.60;99.90;;;;;;5013252;28;20030;-73
2024/02/29 08:24:27;;;;;;;20.38;8.52;;;13.70;99.90;;;;;;5013427;28;20374;-69
2024/02/29 08:26:53;;;;;;;22.75;9.30;;;13.70;99.90;;;;;;5013409;28;20038;-73
2024/02/29 08:29:19;;;;;;;23.10;8.77;;;13.80;99.90;;;;;;5013030;28;20136;-74
2024/02/29 08:31:45;;;;;;;23.67;8.95;;;13.80;99.90;;;;;;5012786;28;20030;-73
2024/02/29 08:34:11;;;;;;;27.88;9.25;;;13.80;99.90;;;;;;5011635;28;20022;-74
2024/02/29 08:36:36;;;;;;;22.85;8.85;;;13.80;99.90;;;;;;5011428;28;20029;-70
2024/02/29 08:39:02;;;;;;;23.40;9.27;;;13.80;99.90;;;;;;5011600;28;20480;-73
2024/02/29 08:41:28;;;;;;;24.20;9.30;;;13.70;99.90;;;;;;5011960;28;20030;-73
2024/02/29 08:43:54;;;;;;;22.25;9.32;;;13.70;99.90;;;;;;5011735;28;20018;-74
2024/02/29 08:46:20;;;;;;;36.95;10.18;;;13.80;99.90;;;;;;5011383;28;20386;-73
2024/02/29 08:48:45;;;;;;;19.73;8.75;;;13.70;99.90;;;;;;5012260;28;20115;-71
2024/02/29 08:51:12;;;;;;;21.75;8.95;;;13.70;99.90;;;;;;5012566;28;20037;-72
2024/02/29 08:53:37;;;;;;;26.75;9.32;;;13.70;99.90;;;;;;5012590;28;20101;-73
2024/02/29 08:56:03;;;;;;;32.70;9.57;;;13.70;99.90;;;;;;5013179;28;20034;-73
2024/02/29 08:58:29;;;;;;;23.35;8.93;;;13.70;99.90;;;;;;5013318;28;20022;-74
2024/02/29 09:00:55;;;;;;;24.20;8.52;;;13.80;99.90;;;;;;5013130;28;20030;-74
2024/02/29 09:03:21;;;;;;;18.63;7.55;;;13.80;99.90;;;;;;5013153;28;20038;-74
2024/02/29 09:05:47;;;;;;;22.95;7.93;;;13.80;99.90;;;;;;5013121;28;20108;-74
2024/02/29 09:08:13;;;;;;;23.33;9.00;;;13.80;99.90;;;;;;5013373;28;20022;-74
2024/02/29 09:10:38;;;;;;;29.33;7.90;;;13.80;99.90;;;;;;5013229;28;20033;-74
2024/02/29 09:13:04;;;;;;;22.05;10.40;;;13.80;99.90;;;;;;5012839;28;20470;-72
2024/02/29 09:15:33;;;;;;;23.67;9.43;;;13.80;99.90;;;;;;5013214;28;20433;-74
2024/02/29 09:18:01;;;;;;;24.55;8.50;;;13.90;99.90;;;;;;5011900;28;20029;-74
2024/02/29 09:20:26;;;;;;;29.27;9.10;;;13.90;99.90;;;;;;5013378;28;20022;-74
2024/02/29 09:22:52;;;;;;;23.77;8.50;;;13.90;99.90;;;;;;5013049;28;20022;-73
2024/02/29 09:25:18;;;;;;;26.05;10.00;;;13.90;99.90;;;;;;5012950;28;20097;-73
2024/02/29 09:27:47;;;;;;;21.40;8.00;;;14.00;99.90;;;;;;5013021;28;20553;-71
2024/02/29 09:30:13;;;;;;;20.60;10.70;;;14.00;99.90;;;;;;5013186;28;20029;-73
2024/02/29 09:32:39;;;;;;;26.05;9.88;;;14.00;99.90;;;;;;5012989;28;20474;-73
2024/02/29 09:35:06;;;;;;;28.95;9.45;;;14.10;99.90;;;;;;5012925;28;20018;-73
2024/02/29 09:37:32;;;;;;;18.63;9.88;;;14.10;99.90;;;;;;5012594;28;20036;-73
2024/02/29 09:39:58;;;;;;;19.30;9.20;;;14.10;99.90;;;;;;5012606;28;20030;-69
2024/02/29 09:42:27;;;;;;;22.77;9.65;;;14.10;99.90;;;;;;5012758;28;20108;-73
2024/02/29 09:44:54;;;;;;;26.67;9.88;;;14.20;99.90;;;;;;5012671;28;20385;-72
2024/02/29 09:47:22;;;;;;;39.17;10.48;;;14.20;99.90;;;;;;5014708;28;20082;-73
2024/02/29 09:49:48;;;;;;;29.98;10.23;;;14.20;99.90;;;;;;5016648;28;20017;-72
2024/02/29 09:52:15;;;;;;;21.38;8.63;;;14.20;99.90;;;;;;5016274;28;20026;-73
2024/02/29 09:54:41;;;;;;;26.35;9.60;;;14.20;99.90;;;;;;5016284;28;20033;-73
2024/02/29 09:57:09;;;;;;;19.95;9.13;;;14.30;99.90;;;;;;5016469;28;20018;-73
2024/02/29 09:59:37;;;;;;;18.67;9.13;;;14.20;99.90;;;;;;5016323;28;20589;-73
2024/02/29 10:02:05;;;;;;;30.30;10.63;;;14.30;99.90;;;;;;5016081;28;20528;-73
2024/02/29 10:04:32;;;;;;;35.28;10.60;;;14.30;99.90;;;;;;5016428;28;20092;-74
2024/02/29 10:06:57;;;;;;;18.38;10.10;;;14.30;99.90;;;;;;5016350;28;20045;-73
2024/02/29 10:09:24;;;;;;;28.25;10.48;;;14.40;99.90;;;;;;5016297;28;20018;-73
2024/02/29 10:11:54;;;;;;;30.27;10.70;;;14.40;99.90;;;;;;5016126;28;20026;-73
2024/02/29 10:14:22;;;;;;;26.65;10.75;;;14.50;99.90;;;;;;5015975;28;20037;-73
2024/02/29 10:16:51;;;;;;;21.65;10.60;;;14.50;99.90;;;;;;5016045;28;20351;-74
2024/02/29 10:19:21;;;;;;;33.03;12.02;;;14.60;99.90;;;;;;5015734;28;20033;-73
2024/02/29 10:21:47;;;;;;;26.25;10.13;;;14.60;99.90;;;;;;5015456;28;20496;-72
2024/02/29 10:24:13;;;;;;;29.70;10.57;;;14.60;99.90;;;;;;5014790;28;20018;-73
2024/02/29 10:26:39;;;;;;;21.85;9.70;;;14.70;99.90;;;;;;5015301;28;20056;-73
2024/02/29 10:29:09;;;;;;;20.25;9.88;;;14.80;99.90;;;;;;5015131;28;20045;-73
2024/02/29 10:31:35;;;;;;;21.23;8.07;;;14.80;99.90;;;;;;5015867;28;20034;-73
2024/02/29 10:34:01;;;;;;;24.85;9.00;;;14.90;99.90;;;;;;5016056;28;20040;-72
2024/02/29 10:36:27;;;;;;;19.13;8.50;;;15.00;99.90;;;;;;5014677;28;20028;-73
2024/02/29 10:38:55;;;;;;;20.75;9.55;;;15.10;99.80;;;;;;5013863;28;20030;-73
2024/02/29 10:41:21;;;;;;;19.23;9.52;;;15.20;99.80;;;;;;5014158;28;20025;-73
2024/02/29 10:43:50;;;;;;;21.95;9.40;;;15.30;99.20;;;;;;5013852;28;20029;-73
2024/02/29 10:46:19;;;;;;;20.85;9.10;;;15.40;98.70;;;;;;5013662;28;20049;-72
2024/02/29 10:48:49;;;;;;;18.20;9.60;;;15.50;98.20;;;;;;5014230;28;20040;-72
2024/02/29 10:51:38;;;;;;;19.17;9.63;;;15.50;98.30;;;;;;5014932;28;20091;-71
2024/02/29 10:54:49;;;;;;;24.73;10.82;;;15.50;97.50;;;;;;5014893;28;20054;-71
2024/02/29 10:57:18;;;;;;;19.17;9.73;;;15.50;97.80;;;;;;4992917;28;20526;-73
2024/02/29 10:59:52;;;;;;;38.30;9.85;;;15.50;97.60;;;;;;5011294;28;20045;-72
2024/02/29 11:02:19;;;;;;;17.58;10.05;;;15.50;97.70;;;;;;5015166;28;20037;-70
2024/02/29 11:04:45;;;;;;;21.75;9.95;;;15.50;97.40;;;;;;5014835;28;20104;-72
2024/02/29 11:07:12;;;;;;;26.90;9.77;;;15.50;97.90;;;;;;5015012;28;20053;-71
2024/02/29 11:09:39;;;;;;;25.02;10.18;;;15.50;97.70;;;;;;5015091;28;20107;-72
2024/02/29 11:12:10;;;;;;;18.27;10.00;;;15.50;97.50;;;;;;5015078;28;20034;-70
2024/02/29 11:14:36;;;;;;;19.17;10.07;;;15.50;97.40;;;;;;5010455;28;20042;-71
2024/02/29 11:17:07;;;;;;;18.60;10.38;;;15.50;97.00;;;;;;5014990;28;20026;-72
2024/02/29 11:19:33;;;;;;;19.83;9.20;;;15.50;97.00;;;;;;5014753;28;20105;-74
2024/02/29 11:22:11;;;;;;;21.48;9.45;;;15.60;96.60;;;;;;5014854;28;20106;-73
2024/02/29 11:24:39;;;;;;;20.45;10.10;;;15.50;96.70;;;;;;5014585;28;20064;-74
2024/02/29 11:27:12;;;;;;;25.27;9.43;;;15.60;96.80;;;;;;5014765;28;20040;-73
2024/02/29 11:29:42;;;;;;;26.60;8.82;;;15.60;96.70;;;;;;5013858;28;20026;-68
2024/02/29 11:32:07;;;;;;;22.17;9.05;;;15.60;97.10;;;;;;5014545;28;20109;-69
2024/02/29 11:34:33;;;;;;;29.52;10.02;;;15.70;97.10;;;;;;5014748;28;20097;-72
2024/02/29 11:37:02;;;;;;;25.35;10.20;;;15.60;96.10;;;;;;5014606;28;20095;-71
2024/02/29 11:39:28;;;;;;;21.40;10.35;;;15.60;95.50;;;;;;5013566;28;20045;-73
2024/02/29 11:42:04;;;;;;;17.92;9.68;;;15.60;95.10;;;;;;5013143;28;20167;-73
2024/02/29 11:44:31;;;;;;;20.55;9.70;;;15.60;95.40;;;;;;5013666;28;20049;-71
2024/02/29 11:46:57;;;;;;;18.45;9.80;;;15.60;95.90;;;;;;5012286;28;20516;-70
2024/02/29 11:49:25;;;;;;;26.00;10.57;;;15.60;96.10;;;;;;5012107;28;20022;-73
2024/02/29 11:51:52;;;;;;;34.60;11.77;;;15.60;95.50;;;;;;5013056;28;20033;-68
2024/02/29 11:54:18;;;;;;;25.20;10.40;;;15.60;95.30;;;;;;5014474;28;20060;-72
2024/02/29 11:56:44;;;;;;;28.85;12.55;;;15.60;95.80;;;;;;5014426;28;20491;-72
2024/02/29 11:59:12;;;;;;;24.05;11.63;;;15.60;95.90;;;;;;5010497;28;20110;-71
2024/02/29 12:01:40;;;;;;;21.38;11.65;;;15.50;95.30;;;;;;5011967;28;20028;-72
2024/02/29 12:04:06;;;;;;;29.58;11.38;;;15.60;95.60;;;;;;5011882;28;20108;-72
2024/02/29 12:06:33;;;;;;;28.00;11.57;;;15.50;95.40;;;;;;5011862;28;20481;-72
2024/02/29 12:09:00;;;;;;;24.42;11.27;;;15.60;95.10;;;;;;5011288;28;20079;-72
2024/02/29 12:11:27;;;;;;;20.67;10.68;;;15.60;95.20;;;;;;5011668;28;20022;-71
2024/02/29 12:13:53;;;;;;;32.65;11.88;;;15.60;95.50;;;;;;5011182;28;20719;-73
2024/02/29 12:16:19;;;;;;;27.05;12.35;;;15.60;94.90;;;;;;5011497;28;20038;-73
2024/02/29 12:18:48;;;;;;;28.15;11.57;;;15.60;95.10;;;;;;5011844;28;20044;-72
2024/02/29 12:21:13;;;;;;;26.13;11.57;;;15.60;94.50;;;;;;5011499;28;20597;-73
2024/02/29 12:23:40;;;;;;;23.10;11.35;;;15.60;94.90;;;;;;5013110;28;20100;-72
2024/02/29 12:26:18;;;;;;;22.60;11.73;;;15.60;95.10;;;;;;5012692;28;20034;-73
2024/02/29 12:28:50;;;;;;;23.25;11.25;;;15.60;95.30;;;;;;5012397;28;20072;-72
2024/02/29 12:31:16;;;;;;;24.98;10.80;;;15.60;94.80;;;;;;5013180;28;20029;-72
2024/02/29 12:33:45;;;;;;;32.55;11.85;;;15.50;94.80;;;;;;5013275;28;20029;-72